Time;durP1;ratioP1;P1;durP2;ratioP2;P2;SDS_P1;SDS_P2;PMS_P1;PMS_P2;Temp;Humidity;BMP_temperature;BMP_pressure;BME280_temperature;BME280_humidity;BME280_pressure;Samples;Min_cycle;Max_cycle;Signal;HPM_P1;HPM_P2
2022/01/30 00:00:23;;;;;;;;;;;;;;;20.92;39.76;103017.13;7285338;19;153225;-50
2022/01/30 00:02:51;;;;;;;;;;;;;;;20.93;39.92;103027.25;7282770;19;151881;-49
2022/01/30 00:05:18;;;;;;;;;;;;;;;20.90;39.99;103012.84;7285021;19;151785;-50
2022/01/30 00:07:45;;;;;;;;;;;;;;;20.84;39.73;103015.63;7283281;19;153468;-50
2022/01/30 00:10:15;;;;;;;;;;;;;;;20.83;40.30;103022.34;7284881;19;151832;-51
2022/01/30 00:12:48;;;;;;;;;;;;;;;20.81;40.18;103018.94;7279546;19;152767;-49
2022/01/30 00:15:17;;;;;;;;;;;;;;;20.83;40.33;103013.06;7282909;19;154349;-50
2022/01/30 00:17:51;;;;;;;;;;;;;;;20.80;40.43;103008.81;7289479;19;151928;-49
2022/01/30 00:20:22;;;;;;;;;;;;;;;20.78;40.42;103005.41;7283597;19;153412;-49
2022/01/30 00:22:59;;;;;;;;;;;;;;;20.75;40.48;103005.94;7284144;19;151691;-49
2022/01/30 00:25:42;;;;;;;;;;;;;;;20.76;40.48;103026.44;7284183;19;153311;-50
2022/01/30 00:28:12;;;;;;;;;;;;;;;20.69;40.56;103015.41;7284177;19;153954;-49
2022/01/30 00:30:39;;;;;;;;;;;;;;;20.71;40.37;103018.81;7282731;19;151776;-50
2022/01/30 00:33:06;;;;;;;;;;;;;;;20.67;40.81;103012.00;7284613;19;153095;-50
2022/01/30 00:35:35;;;;;;;;;;;;;;;20.69;40.75;103021.03;7284205;19;154064;-49
2022/01/30 00:38:03;;;;;;;;;;;;;;;20.67;41.01;103022.41;7289758;19;151771;-50
2022/01/30 00:40:34;;;;;;;;;;;;;;;20.65;40.97;103021.81;7282131;19;154168;-50
2022/01/30 00:43:02;;;;;;;;;;;;;;;20.64;40.93;103017.28;7284273;19;151971;-50
2022/01/30 00:45:29;;;;;;;;;;;;;;;20.62;41.33;103022.31;7284695;19;153233;-49
2022/01/30 00:47:56;;;;;;;;;;;;;;;20.58;40.99;103007.94;7283463;19;154319;-49
2022/01/30 00:50:23;;;;;;;;;;;;;;;20.56;41.06;103009.31;7282474;19;151734;-50
2022/01/30 00:52:53;;;;;;;;;;;;;;;20.56;41.36;103003.69;7281755;19;153147;-50
2022/01/30 00:55:22;;;;;;;;;;;;;;;20.52;41.59;103008.97;7282670;19;153604;-50
2022/01/30 00:57:49;;;;;;;;;;;;;;;20.52;41.28;103027.78;7281751;19;151570;-49
2022/01/30 01:00:16;;;;;;;;;;;;;;;20.50;41.32;103036.47;7291022;19;153310;-53
2022/01/30 01:02:43;;;;;;;;;;;;;;;20.47;41.31;103036.97;7282580;19;151845;-49
2022/01/30 01:05:11;;;;;;;;;;;;;;;20.45;41.69;103018.69;7282263;19;151947;-50
2022/01/30 01:07:43;;;;;;;;;;;;;;;20.44;41.38;103017.84;7282284;19;154478;-51
2022/01/30 01:25:36;;;;;;;;;;;;;;;20.32;41.95;103023.56;7282018;19;152773;-51
2022/01/30 01:28:03;;;;;;;;;;;;;;;20.31;42.03;103021.84;7281590;19;153976;-51
2022/01/30 01:30:29;;;;;;;;;;;;;;;20.29;42.47;103028.81;7280004;19;152126;-51
2022/01/30 01:33:01;;;;;;;;;;;;;;;20.29;42.18;103029.66;7282474;19;152645;-51
2022/01/30 01:35:28;;;;;;;;;;;;;;;20.29;42.43;103028.81;7279870;19;152096;-51
2022/01/30 01:37:55;;;;;;;;;;;;;;;20.27;42.23;103028.19;7288106;19;152192;-52
2022/01/30 01:40:22;;;;;;;;;;;;;;;20.27;42.64;103028.19;7288696;19;153025;-51
2022/01/30 01:42:49;;;;;;;;;;;;;;;20.25;42.74;103033.22;7287395;19;154014;-51
2022/01/30 01:45:20;;;;;;;;;;;;;;;20.24;42.63;103046.41;7297599;19;151459;-51
2022/01/30 01:47:47;;;;;;;;;;;;;;;20.24;42.57;103048.38;7287313;19;153400;-51
2022/01/30 01:50:37;;;;;;;;;;;;;;;20.21;42.68;103044.13;7287967;19;152475;-51
2022/01/30 01:53:01;;;;;;;;;;;;;;;20.19;42.34;103028.63;7287982;19;153383;-51
2022/01/30 01:55:28;;;;;;;;;;;;;;;20.19;42.54;103028.63;7288155;19;152154;-51
2022/01/30 01:57:55;;;;;;;;;;;;;;;20.17;42.62;103028.88;7287402;19;151926;-51
2022/01/30 02:00:22;;;;;;;;;;;;;;;20.16;42.35;103038.41;7288287;19;151984;-51
2022/01/30 02:02:49;;;;;;;;;;;;;;;20.14;42.48;103037.81;7287236;19;154091;-51
2022/01/30 02:05:16;;;;;;;;;;;;;;;20.14;42.75;103045.38;7286681;19;152008;-51
2022/01/30 02:10:28;;;;;;;;;;;;;;;20.11;42.42;103043.94;7289154;19;151724;-51
2022/01/30 02:13:08;;;;;;;;;;;;;;;20.09;42.39;103040.53;7285404;19;152615;-51
2022/01/30 02:25:58;;;;;;;;;;;;;;;19.99;42.89;103051.56;7288585;19;151424;-51
2022/01/30 02:28:26;;;;;;;;;;;;;;;20.00;42.54;103050.47;7287748;19;152630;-52
2022/01/30 02:31:01;;;;;;;;;;;;;;;19.99;42.71;103052.44;7294535;19;151791;-51
2022/01/30 02:33:28;;;;;;;;;;;;;;;19.97;43.08;103053.78;7285705;19;153170;-50
2022/01/30 02:35:55;;;;;;;;;;;;;;;19.93;43.08;103052.59;7287362;19;153830;-51
2022/01/30 02:38:22;;;;;;;;;;;;;;;19.92;43.07;103057.38;7286469;19;151990;-51
2022/01/30 02:40:52;;;;;;;;;;;;;;;19.91;42.80;103054.81;7284416;19;152252;-51
2022/01/30 02:43:23;;;;;;;;;;;;;;;19.90;42.88;103048.34;7285746;19;154124;-50
2022/01/30 02:46:03;;;;;;;;;;;;;;;19.86;42.66;103046.28;7286394;19;151756;-51
2022/01/30 02:48:49;;;;;;;;;;;;;;;19.86;42.95;103047.13;7283988;19;152698;-51
2022/01/30 02:51:18;;;;;;;;;;;;;;;19.84;42.67;103054.13;7294152;19;153296;-51
2022/01/30 02:53:54;;;;;;;;;;;;;;;19.82;42.66;103056.31;7284806;19;153279;-51
2022/01/30 02:56:21;;;;;;;;;;;;;;;19.77;42.67;103065.50;7287093;19;153211;-51
2022/01/30 02:58:48;;;;;;;;;;;;;;;19.77;42.70;103068.28;7283677;19;152297;-51
2022/01/30 03:01:15;;;;;;;;;;;;;;;19.78;42.94;103063.53;7285899;19;152132;-51
2022/01/30 03:03:42;;;;;;;;;;;;;;;19.72;43.00;103072.94;7286596;19;153768;-50
2022/01/30 03:06:09;;;;;;;;;;;;;;;19.72;43.04;103062.56;7285981;19;151695;-51
2022/01/30 03:08:37;;;;;;;;;;;;;;;19.72;42.99;103068.19;7286366;19;152637;-51
2022/01/30 03:11:04;;;;;;;;;;;;;;;19.71;42.99;103069.31;7286114;19;154305;-50
2022/01/30 03:13:31;;;;;;;;;;;;;;;19.68;43.32;103064.19;7292483;19;151998;-51
2022/01/30 03:16:00;;;;;;;;;;;;;;;19.68;43.16;103063.34;7287031;19;154012;-51
2022/01/30 03:18:27;;;;;;;;;;;;;;;19.67;43.18;103058.84;7282456;19;152291;-51
2022/01/30 03:20:54;;;;;;;;;;;;;;;19.64;43.36;103063.00;7287086;19;153489;-50
2022/01/30 03:23:20;;;;;;;;;;;;;;;19.62;43.15;103065.22;7283238;19;154803;-51
2022/01/30 03:25:54;;;;;;;;;;;;;;;19.64;43.42;103067.75;7286389;19;151747;-51
2022/01/30 03:28:20;;;;;;;;;;;;;;;19.62;43.18;103069.97;7286987;19;152809;-50
2022/01/30 03:30:48;;;;;;;;;;;;;;;19.62;43.36;103070.81;7283062;19;156042;-51
2022/01/30 03:33:15;;;;;;;;;;;;;;;19.62;43.38;103067.16;7283610;19;152080;-51
2022/01/30 03:35:42;;;;;;;;;;;;;;;19.60;43.57;103061.78;7292051;19;152727;-51
2022/01/30 03:38:09;;;;;;;;;;;;;;;19.58;43.37;103066.78;7282483;19;152177;-51
2022/01/30 03:40:36;;;;;;;;;;;;;;;19.58;43.54;103060.34;7286879;19;153413;-51
2022/01/30 03:43:03;;;;;;;;;;;;;;;19.57;43.33;103059.50;7284771;19;154248;-51
2022/01/30 03:45:29;;;;;;;;;;;;;;;19.57;43.45;103058.66;7286205;19;151771;-51
2022/01/30 03:47:56;;;;;;;;;;;;;;;19.56;43.74;103060.59;7285640;19;152125;-51
2022/01/30 03:50:23;;;;;;;;;;;;;;;19.52;43.43;103056.59;7284312;19;153491;-50
2022/01/30 03:52:50;;;;;;;;;;;;;;;19.52;43.35;103067.81;7285789;19;152021;-51
2022/01/30 03:55:17;;;;;;;;;;;;;;;19.49;43.48;103068.28;7286148;19;153669;-51
2022/01/30 03:57:43;;;;;;;;;;;;;;;19.49;43.15;103057.06;7289276;19;153927;-51
2022/01/30 04:00:10;;;;;;;;;;;;;;;19.48;43.30;103061.00;7283078;19;153325;-51
2022/01/30 04:02:37;;;;;;;;;;;;;;;19.47;43.35;103062.94;7283916;19;153387;-50
2022/01/30 04:05:04;;;;;;;;;;;;;;;19.45;43.34;103061.47;7283234;19;152226;-51
2022/01/30 04:07:32;;;;;;;;;;;;;;;19.45;43.39;103069.91;7283164;19;153656;-51
2022/01/30 04:09:58;;;;;;;;;;;;;;;19.44;43.36;103065.41;7284905;19;153394;-51
2022/01/30 04:12:29;;;;;;;;;;;;;;;19.45;43.52;103067.09;7282164;19;152240;-51
2022/01/30 04:14:56;;;;;;;;;;;;;;;19.41;43.64;103072.31;7283474;19;153106;-50
2022/01/30 04:17:23;;;;;;;;;;;;;;;19.40;43.34;103078.16;7282344;19;154746;-51
2022/01/30 04:19:50;;;;;;;;;;;;;;;19.38;43.54;103078.44;7290523;19;151857;-51
2022/01/30 04:22:17;;;;;;;;;;;;;;;19.38;43.14;103072.81;7283652;19;153889;-51
2022/01/30 04:24:44;;;;;;;;;;;;;;;19.37;43.59;103078.66;7283954;19;151801;-51
2022/01/30 04:27:11;;;;;;;;;;;;;;;19.34;43.29;103082.84;7284905;19;153180;-51
2022/01/30 04:29:37;;;;;;;;;;;;;;;19.33;43.42;103083.94;7283136;19;154168;-51
2022/01/30 04:32:05;;;;;;;;;;;;;;;19.32;43.57;103089.78;7279569;19;152072;-51
2022/01/30 04:34:32;;;;;;;;;;;;;;;19.30;43.23;103092.00;7285396;19;153134;-51
2022/01/30 04:57:37;;;;;;;;;;;;;;;19.18;43.33;103093.94;7280058;19;153365;-51
2022/01/30 05:00:22;;;;;;;;;;;;;;;19.16;43.43;103093.34;7282030;19;151823;-51
2022/01/30 05:08:02;;;;;;;;;;;;;;;19.12;43.70;103065.00;7281745;19;153156;-51
2022/01/30 05:10:29;;;;;;;;;;;;;;;19.12;43.90;103069.75;7281563;19;153940;-52
2022/01/30 05:12:58;;;;;;;;;;;;;;;19.10;43.46;103068.03;7286858;19;151986;-50
2022/01/30 05:15:28;;;;;;;;;;;;;;;19.08;43.90;103075.81;7290963;19;153334;-51
2022/01/30 05:17:55;;;;;;;;;;;;;;;19.08;43.94;103078.63;7288296;19;153415;-51
2022/01/30 05:20:22;;;;;;;;;;;;;;;19.07;43.93;103071.34;7287771;19;152003;-51
2022/01/30 05:22:49;;;;;;;;;;;;;;;19.03;44.14;103072.91;7287696;19;153756;-51
2022/01/30 05:25:16;;;;;;;;;;;;;;;19.02;43.80;103070.38;7296506;19;153460;-51
2022/01/30 05:27:42;;;;;;;;;;;;;;;19.03;43.79;103066.47;7288451;19;153669;-51
2022/01/30 05:30:09;;;;;;;;;;;;;;;19.02;44.10;103065.63;7287739;19;153947;-51
2022/01/30 05:32:36;;;;;;;;;;;;;;;19.02;43.82;103068.41;7287985;19;151638;-50
2022/01/30 05:35:03;;;;;;;;;;;;;;;19.00;43.85;103081.81;7290886;19;153228;-51
2022/01/30 05:37:30;;;;;;;;;;;;;;;18.98;44.15;103071.97;7287892;19;154660;-50
2022/01/30 05:39:57;;;;;;;;;;;;;;;19.00;43.79;103072.53;7288279;19;151754;-51
2022/01/30 05:42:26;;;;;;;;;;;;;;;18.97;43.96;103065.50;7288404;19;152176;-50
2022/01/30 05:45:01;;;;;;;;;;;;;;;18.95;44.26;103072.44;7289362;19;153807;-51
2022/01/30 05:47:36;;;;;;;;;;;;;;;18.95;44.27;103075.22;7293001;19;151802;-52
2022/01/30 05:50:03;;;;;;;;;;;;;;;18.94;44.05;103077.19;7288714;19;153854;-51
2022/01/30 05:52:29;;;;;;;;;;;;;;;18.91;44.33;103080.47;7287063;19;151509;-51
2022/01/30 05:54:56;;;;;;;;;;;;;;;18.92;44.34;103084.13;7289746;19;152805;-52
2022/01/30 05:57:23;;;;;;;;;;;;;;;18.90;44.30;103087.16;7285227;19;153385;-51
2022/01/30 05:59:50;;;;;;;;;;;;;;;18.91;44.00;103077.69;7288167;19;151944;-51
2022/01/30 06:02:17;;;;;;;;;;;;;;;18.88;44.31;103080.97;7289344;19;153060;-51
2022/01/30 06:04:44;;;;;;;;;;;;;;;18.85;44.34;103083.44;7287114;19;153781;-50
2022/01/30 06:07:12;;;;;;;;;;;;;;;18.84;44.25;103085.38;7287108;19;152276;-51
2022/01/30 06:09:38;;;;;;;;;;;;;;;18.82;44.03;103095.94;7295308;19;152620;-50
2022/01/30 06:12:05;;;;;;;;;;;;;;;18.84;43.91;103087.31;7287094;19;151924;-50
2022/01/30 06:14:33;;;;;;;;;;;;;;;18.84;44.03;103101.31;7286912;19;153792;-50
2022/01/30 06:17:00;;;;;;;;;;;;;;;18.81;44.20;103094.25;7287972;19;153558;-50
2022/01/30 06:19:26;;;;;;;;;;;;;;;18.82;44.00;103103.50;7287904;19;151964;-51
2022/01/30 06:21:53;;;;;;;;;;;;;;;18.79;44.08;103102.06;7288037;19;152441;-51
2022/01/30 06:24:20;;;;;;;;;;;;;;;18.78;44.53;103096.69;7285629;19;154124;-51
2022/01/30 06:26:46;;;;;;;;;;;;;;;18.79;44.31;103092.78;7286475;19;151761;-51
2022/01/30 06:29:13;;;;;;;;;;;;;;;18.79;44.34;103085.25;7288312;19;152031;-51
2022/01/30 06:31:40;;;;;;;;;;;;;;;18.77;44.16;103098.63;7293969;19;153541;-51
2022/01/30 06:34:07;;;;;;;;;;;;;;;18.77;44.05;103097.78;7288174;19;153660;-51
2022/01/30 06:36:33;;;;;;;;;;;;;;;18.74;44.06;103101.94;7288058;19;153439;-49
2022/01/30 06:39:00;;;;;;;;;;;;;;;18.76;44.36;103099.72;7285741;19;151817;-49
2022/01/30 06:41:27;;;;;;;;;;;;;;;18.76;44.09;103099.72;7287745;19;152774;-49
2022/01/30 06:43:53;;;;;;;;;;;;;;;18.74;44.53;103099.13;7286766;19;153542;-52
2022/01/30 06:46:20;;;;;;;;;;;;;;;18.71;44.39;103098.78;7285673;19;152162;-51
2022/01/30 06:48:47;;;;;;;;;;;;;;;18.73;44.50;103102.16;7288024;19;153032;-51
2022/01/30 06:51:14;;;;;;;;;;;;;;;18.71;44.26;103104.38;7292739;19;153495;-51
2022/01/30 06:53:40;;;;;;;;;;;;;;;18.70;44.27;103108.25;7286661;19;153142;-51
2022/01/30 06:56:07;;;;;;;;;;;;;;;18.69;44.06;103113.00;7285040;19;153919;-51
2022/01/30 06:58:34;;;;;;;;;;;;;;;18.67;44.20;103109.59;7285291;19;151542;-51
2022/01/30 07:01:01;;;;;;;;;;;;;;;18.67;44.56;103110.44;7288239;19;153571;-50
2022/01/30 07:03:31;;;;;;;;;;;;;;;18.66;44.38;103113.50;7285372;19;153890;-48
2022/01/30 07:05:57;;;;;;;;;;;;;;;18.65;44.27;103114.59;7287240;19;152131;-48
2022/01/30 07:08:24;;;;;;;;;;;;;;;18.63;44.57;103120.41;7284957;19;153170;-49
2022/01/30 07:10:51;;;;;;;;;;;;;;;18.64;44.52;103121.28;7286824;19;153870;-49
2022/01/30 07:13:18;;;;;;;;;;;;;;;18.62;44.39;103129.91;7290584;19;152317;-49
2022/01/30 07:15:44;;;;;;;;;;;;;;;18.60;44.42;103126.53;7284695;19;153276;-49
2022/01/30 07:18:12;;;;;;;;;;;;;;;18.59;44.52;103130.41;7284558;19;151688;-49
2022/01/30 07:20:39;;;;;;;;;;;;;;;18.59;44.75;103129.53;7280871;19;154407;-49
2022/01/30 07:23:05;;;;;;;;;;;;;;;18.57;44.43;103127.00;7285862;19;153459;-49
2022/01/30 07:25:32;;;;;;;;;;;;;;;18.59;44.32;103129.53;7285863;19;151973;-50
2022/01/30 07:27:59;;;;;;;;;;;;;;;18.56;44.65;103136.50;7287032;19;153043;-50
2022/01/30 07:30:26;;;;;;;;;;;;;;;18.56;44.71;103144.91;7284089;19;153402;-50
2022/01/30 07:32:54;;;;;;;;;;;;;;;18.57;44.68;103141.00;7285748;19;151971;-50
2022/01/30 07:35:21;;;;;;;;;;;;;;;18.55;44.29;103139.53;7291663;19;151635;-50
2022/01/30 07:37:51;;;;;;;;;;;;;;;18.55;44.39;103142.31;7285121;19;151952;-49
2022/01/30 07:40:18;;;;;;;;;;;;;;;18.53;44.72;103139.75;7282244;19;153369;-49
2022/01/30 07:42:45;;;;;;;;;;;;;;;18.51;44.37;103147.53;7283164;19;154575;-49
2022/01/30 07:45:13;;;;;;;;;;;;;;;18.51;44.48;103149.47;7287530;19;151889;-50
2022/01/30 07:47:39;;;;;;;;;;;;;;;18.48;44.20;103142.44;7283922;19;152259;-49
2022/01/30 07:50:06;;;;;;;;;;;;;;;18.48;44.47;103156.41;7283759;19;153938;-50
2022/01/30 07:52:33;;;;;;;;;;;;;;;18.48;44.49;103159.22;7284673;19;152316;-50
2022/01/30 07:55:00;;;;;;;;;;;;;;;18.46;44.49;103161.41;7284900;19;153264;-50
2022/01/30 07:57:27;;;;;;;;;;;;;;;18.44;44.44;103160.75;7290802;19;153342;-50
2022/01/30 07:59:54;;;;;;;;;;;;;;;18.43;44.51;103159.09;7282760;19;152776;-50
2022/01/30 08:02:21;;;;;;;;;;;;;;;18.43;44.36;103161.88;7284524;19;154309;-49
2022/01/30 08:04:48;;;;;;;;;;;;;;;18.41;44.16;103152.84;7285002;19;152658;-50
2022/01/30 08:07:15;;;;;;;;;;;;;;;18.39;44.15;103166.25;7285592;19;152634;-49
2022/01/30 08:09:42;;;;;;;;;;;;;;;18.40;44.47;103165.13;7284658;19;152601;-49
2022/01/30 08:12:09;;;;;;;;;;;;;;;18.38;44.63;103167.34;7280986;19;151720;-49
2022/01/30 08:14:36;;;;;;;;;;;;;;;18.38;44.70;103163.69;7285725;19;152614;-50
2022/01/30 08:17:03;;;;;;;;;;;;;;;18.35;44.52;103159.41;7284142;19;152561;-49
2022/01/30 08:19:30;;;;;;;;;;;;;;;18.35;44.45;103167.81;7293005;19;152254;-50
2022/01/30 08:22:03;;;;;;;;;;;;;;;18.36;44.49;103174.25;7284096;19;153585;-50
2022/01/30 08:24:30;;;;;;;;;;;;;;;18.32;44.63;103170.22;7284977;19;152041;-49
2022/01/30 08:26:57;;;;;;;;;;;;;;;18.34;44.80;103177.31;7283680;19;152708;-49
2022/01/30 08:29:24;;;;;;;;;;;;;;;18.32;44.52;103184.22;7283017;19;153396;-49
2022/01/30 08:31:50;;;;;;;;;;;;;;;18.31;44.81;103188.97;7285112;19;152046;-50
2022/01/30 08:34:17;;;;;;;;;;;;;;;18.29;44.63;103184.72;7281668;19;154361;-50
2022/01/30 08:36:44;;;;;;;;;;;;;;;18.26;44.64;103185.19;7283536;19;153269;-50
2022/01/30 08:39:11;;;;;;;;;;;;;;;18.25;44.87;103183.50;7284922;19;151956;-50
2022/01/30 08:41:38;;;;;;;;;;;;;;;18.25;44.84;103186.28;7292215;19;152618;-49
2022/01/30 08:44:05;;;;;;;;;;;;;;;18.25;44.81;103177.91;7285086;19;151822;-51
2022/01/30 08:46:32;;;;;;;;;;;;;;;18.26;44.78;103177.63;7285360;19;153877;-50
2022/01/30 08:48:59;;;;;;;;;;;;;;;18.25;44.79;103178.75;7289552;19;153672;-51
2022/01/30 08:51:26;;;;;;;;;;;;;;;18.25;44.47;103172.28;7287516;19;152191;-50
2022/01/30 08:53:53;;;;;;;;;;;;;;;18.22;44.61;103166.06;7290529;19;152656;-50
2022/01/30 08:56:21;;;;;;;;;;;;;;;18.20;44.66;103178.59;7288029;19;153717;-51
2022/01/30 08:58:49;;;;;;;;;;;;;;;18.20;44.60;103179.47;7289042;19;151543;-51
2022/01/30 09:01:16;;;;;;;;;;;;;;;18.18;44.45;103164.84;7294839;19;152807;-50
2022/01/30 09:03:43;;;;;;;;;;;;;;;18.20;44.77;103164.63;7288173;19;151937;-50
2022/01/30 09:06:10;;;;;;;;;;;;;;;18.17;44.95;103165.94;7289025;19;152008;-49
2022/01/30 09:08:37;;;;;;;;;;;;;;;18.17;44.60;103165.06;7285801;19;153319;-49
2022/01/30 09:11:04;;;;;;;;;;;;;;;18.17;44.62;103165.06;7288750;19;151844;-49
2022/01/30 09:13:31;;;;;;;;;;;;;;;18.15;44.48;103167.28;7289305;19;152950;-50
2022/01/30 09:16:01;;;;;;;;;;;;;;;18.15;44.45;103181.25;7289737;19;154425;-50
2022/01/30 09:18:29;;;;;;;;;;;;;;;18.19;44.74;103183.34;7290159;19;152256;-50
2022/01/30 09:20:56;;;;;;;;;;;;;;;18.17;44.92;103174.31;7289665;19;153799;-50
2022/01/30 09:23:24;;;;;;;;;;;;;;;18.18;45.07;103187.22;7295509;19;153982;-50
2022/01/30 09:25:50;;;;;;;;;;;;;;;18.22;45.15;103177.25;7289358;19;153452;-50
2022/01/30 09:28:17;;;;;;;;;;;;;;;18.25;45.13;103175.09;7285585;19;154050;-49
2022/01/30 09:30:44;;;;;;;;;;;;;;;18.27;45.02;103187.75;7290018;19;151607;-49
2022/01/30 09:33:11;;;;;;;;;;;;;;;18.31;44.98;103183.38;7289389;19;154815;-49
2022/01/30 09:35:38;;;;;;;;;;;;;;;18.35;45.07;103167.81;7289560;19;153381;-49
2022/01/30 09:38:06;;;;;;;;;;;;;;;18.38;45.24;103170.16;7289097;19;152542;-49
2022/01/30 09:40:33;;;;;;;;;;;;;;;18.47;45.24;103174.31;7287185;19;152559;-50
2022/01/30 09:43:01;;;;;;;;;;;;;;;18.35;40.22;103159.41;7288548;19;153291;-51
2022/01/30 09:45:29;;;;;;;;;;;;;;;18.46;42.07;103172.59;7292705;19;152178;-51
2022/01/30 09:47:56;;;;;;;;;;;;;;;18.53;41.42;103176.16;7286777;19;153287;-50
2022/01/30 09:50:24;;;;;;;;;;;;;;;18.59;41.26;103168.75;7289119;19;151722;-51
2022/01/30 09:52:51;;;;;;;;;;;;;;;18.65;41.35;103165.00;7287371;19;153645;-52
2022/01/30 09:55:18;;;;;;;;;;;;;;;18.72;41.41;103167.66;7287210;19;153384;-51
2022/01/30 09:57:47;;;;;;;;;;;;;;;18.79;41.40;103169.28;7281987;19;151814;-51
2022/01/30 10:00:14;;;;;;;;;;;;;;;18.87;41.13;103168.03;7287986;19;152644;-51
2022/01/30 10:02:42;;;;;;;;;;;;;;;18.93;40.83;103161.47;7284186;19;152744;-51
2022/01/30 10:05:13;;;;;;;;;;;;;;;19.00;40.82;103165.00;7290110;19;151816;-51
2022/01/30 10:07:42;;;;;;;;;;;;;;;19.08;40.93;103173.03;7294608;19;153679;-51
2022/01/30 10:10:11;;;;;;;;;;;;;;;19.16;40.54;103175.47;7288672;19;152017;-51
2022/01/30 10:12:58;;;;;;;;;;;;;;;19.24;40.63;103174.25;7284833;19;153199;-51
2022/01/30 10:15:25;;;;;;;;;;;;;;;19.29;40.22;103172.41;7286583;19;152807;-51
2022/01/30 10:17:52;;;;;;;;;;;;;;;19.34;40.13;103164.13;7287735;19;152673;-51
2022/01/30 10:20:37;;;;;;;;;;;;;;;19.41;39.99;103167.63;7286604;19;152244;-51
2022/01/30 10:23:08;;;;;;;;;;;;;;;19.46;40.32;103155.72;7284227;19;153319;-51
2022/01/30 10:25:37;;;;;;;;;;;;;;;19.52;40.00;103160.34;7287160;19;152385;-51
2022/01/30 10:28:12;;;;;;;;;;;;;;;19.58;39.98;103162.13;7286963;19;153729;-51
2022/01/30 10:30:48;;;;;;;;;;;;;;;19.65;39.85;103150.78;7293923;19;153322;-51
2022/01/30 10:33:16;;;;;;;;;;;;;;;19.70;39.74;103143.34;7284608;19;152790;-51
2022/01/30 10:35:52;;;;;;;;;;;;;;;19.77;39.77;103143.16;7287665;19;153552;-51
2022/01/30 10:38:22;;;;;;;;;;;;;;;19.83;39.67;103133.75;7287366;19;151944;-51
2022/01/30 10:40:53;;;;;;;;;;;;;;;19.88;39.49;103137.53;7283587;19;154020;-51
2022/01/30 10:43:21;;;;;;;;;;;;;;;19.94;39.27;103116.88;7283867;19;153810;-51
2022/01/30 10:45:47;;;;;;;;;;;;;;;20.01;39.47;103121.47;7286274;19;151896;-51
2022/01/30 10:48:17;;;;;;;;;;;;;;;20.06;38.99;103113.16;7286228;19;153391;-51
2022/01/30 10:50:47;;;;;;;;;;;;;;;20.12;38.84;103126.19;7285711;19;153836;-51
2022/01/30 10:53:19;;;;;;;;;;;;;;;20.16;39.17;103119.81;7295194;19;151618;-51
2022/01/30 10:55:47;;;;;;;;;;;;;;;20.22;38.97;103120.75;7287292;19;153784;-51
2022/01/30 10:58:19;;;;;;;;;;;;;;;20.27;38.65;103118.88;7285674;19;151734;-51
2022/01/30 11:00:48;;;;;;;;;;;;;;;20.30;38.91;103118.41;7285570;19;153914;-50
2022/01/30 11:03:24;;;;;;;;;;;;;;;20.36;38.47;103124.94;7285257;19;154274;-50
2022/01/30 11:05:52;;;;;;;;;;;;;;;20.42;38.49;103122.00;7287661;19;151601;-51
2022/01/30 11:08:22;;;;;;;;;;;;;;;20.46;38.64;103113.91;7284706;19;151858;-51
2022/01/30 11:10:59;;;;;;;;;;;;;;;20.52;38.60;103112.03;7286726;19;153883;-51
2022/01/30 11:13:32;;;;;;;;;;;;;;;20.55;38.27;103118.00;7292404;19;151818;-51
2022/01/30 11:16:56;;;;;;;;;;;;;;;20.62;38.38;103110.25;7286283;19;152524;-50
2022/01/30 11:18:48;;;;;;;;;;;;;;;20.69;38.48;103110.91;7285091;19;152095;-51
2022/01/30 11:21:20;;;;;;;;;;;;;;;20.73;38.65;103102.81;7283068;19;152820;-51
2022/01/30 11:23:49;;;;;;;;;;;;;;;20.74;38.47;103096.94;7283971;19;153261;-50
2022/01/30 11:26:17;;;;;;;;;;;;;;;20.76;38.30;103083.47;7285736;19;151775;-51
2022/01/30 11:28:45;;;;;;;;;;;;;;;20.81;38.48;103085.50;7285227;19;152671;-51
2022/01/30 11:31:16;;;;;;;;;;;;;;;20.84;38.14;103066.22;7284279;19;154213;-51
2022/01/30 11:33:44;;;;;;;;;;;;;;;20.87;37.94;103064.81;7286711;19;152197;-52
2022/01/30 11:36:11;;;;;;;;;;;;;;;20.91;37.77;103068.81;7293589;19;153330;-50
2022/01/30 11:38:39;;;;;;;;;;;;;;;20.95;37.63;103069.13;7281866;19;151980;-51
2022/01/30 11:41:10;;;;;;;;;;;;;;;20.98;37.30;103071.44;7283882;19;152905;-51
2022/01/30 11:43:38;;;;;;;;;;;;;;;21.02;37.70;103059.44;7285669;19;153552;-51
2022/01/30 11:46:16;;;;;;;;;;;;;;;21.06;37.50;103054.97;7287046;19;151745;-51
2022/01/30 11:49:03;;;;;;;;;;;;;;;21.10;37.40;103052.50;7286853;19;153188;-51
2022/01/30 11:51:47;;;;;;;;;;;;;;;21.14;36.99;103043.31;7283919;19;153940;-51
2022/01/30 11:54:23;;;;;;;;;;;;;;;21.19;37.04;103034.94;7285055;19;151737;-51
2022/01/30 11:56:55;;;;;;;;;;;;;;;21.22;37.23;103025.13;7284984;19;154570;-51
2022/01/30 11:59:31;;;;;;;;;;;;;;;21.26;36.64;103009.41;7292120;19;153806;-51
2022/01/30 12:02:17;;;;;;;;;;;;;;;21.30;36.57;103013.44;7284042;19;153066;-51
2022/01/30 12:04:53;;;;;;;;;;;;;;;21.33;36.42;103000.78;7283248;19;153385;-51
2022/01/30 12:07:30;;;;;;;;;;;;;;;21.34;36.39;103006.16;7285666;19;152318;-51
2022/01/30 12:10:06;;;;;;;;;;;;;;;21.40;36.65;102987.34;7285909;19;153415;-51
2022/01/30 12:12:46;;;;;;;;;;;;;;;21.44;36.38;102977.31;7282148;19;153799;-51
2022/01/30 12:15:23;;;;;;;;;;;;;;;21.47;36.24;102979.56;7283641;19;151697;-52
2022/01/30 12:17:51;;;;;;;;;;;;;;;21.49;36.18;102961.31;7284360;19;153379;-52
2022/01/30 12:20:19;;;;;;;;;;;;;;;21.51;36.27;102967.53;7282057;19;152439;-51
2022/01/30 12:22:46;;;;;;;;;;;;;;;21.53;36.23;102962.47;7289295;19;151670;-51
2022/01/30 12:25:23;;;;;;;;;;;;;;;21.54;36.12;102954.88;7284501;19;152578;-52
2022/01/30 12:27:54;;;;;;;;;;;;;;;21.56;36.00;102952.66;7283056;19;151910;-51
2022/01/30 12:30:29;;;;;;;;;;;;;;;21.56;35.56;102930.16;7283811;19;153553;-52
2022/01/30 12:32:57;;;;;;;;;;;;;;;21.56;35.47;102925.38;7281120;19;153269;-51
2022/01/30 12:35:24;;;;;;;;;;;;;;;21.57;35.25;102920.63;7285359;19;151476;-51
2022/01/30 12:37:52;;;;;;;;;;;;;;;21.56;35.27;102916.94;7283100;19;153368;-51
2022/01/30 12:40:20;;;;;;;;;;;;;;;21.55;35.37;102909.63;7284106;19;152982;-52
2022/01/30 12:42:47;;;;;;;;;;;;;;;21.56;35.40;102911.31;7281890;19;151813;-51
2022/01/30 12:45:15;;;;;;;;;;;;;;;21.55;35.48;102915.25;7290962;19;152007;-51
2022/01/30 12:47:46;;;;;;;;;;;;;;;21.54;35.48;102902.28;7282875;19;151893;-51
2022/01/30 12:50:12;;;;;;;;;;;;;;;21.54;35.09;102895.81;7285005;19;152725;-51
2022/01/30 12:52:39;;;;;;;;;;;;;;;21.50;35.34;102887.06;7281776;19;154068;-51
2022/01/30 12:55:11;;;;;;;;;;;;;;;21.51;35.30;102893.53;7284977;19;151691;-52
2022/01/30 12:57:40;;;;;;;;;;;;;;;21.48;34.89;102903.38;7283887;19;153328;-51
2022/01/30 13:00:08;;;;;;;;;;;;;;;21.47;34.92;102896.06;7283271;19;153456;-51
2022/01/30 13:02:37;;;;;;;;;;;;;;;21.46;34.86;102882.25;7281019;19;151870;-52
2022/01/30 13:05:06;;;;;;;;;;;;;;;21.44;34.65;102876.06;7284006;19;152620;-52
2022/01/30 13:07:33;;;;;;;;;;;;;;;21.43;35.00;102869.59;7286927;19;151673;-51
2022/01/30 13:10:04;;;;;;;;;;;;;;;21.40;34.76;102877.69;7283157;19;151878;-52
2022/01/30 13:12:31;;;;;;;;;;;;;;;21.38;34.38;102863.91;7281078;19;153276;-52
2022/01/30 13:14:58;;;;;;;;;;;;;;;21.36;34.27;102859.66;7283816;19;152060;-52
2022/01/30 13:17:27;;;;;;;;;;;;;;;21.35;34.32;102852.34;7283987;19;153354;-51
2022/01/30 13:19:57;;;;;;;;;;;;;;;21.31;34.71;102849.22;7280259;19;153212;-52
2022/01/30 13:22:25;;;;;;;;;;;;;;;21.32;34.52;102841.63;7281465;19;151711;-52
2022/01/30 13:24:53;;;;;;;;;;;;;;;21.29;34.72;102843.88;7281804;19;151835;-51
2022/01/30 13:27:20;;;;;;;;;;;;;;;21.24;34.62;102832.56;7287932;19;153719;-52
2022/01/30 13:29:47;;;;;;;;;;;;;;;21.21;34.23;102826.66;7283755;19;152739;-53